createdAt,value
2017-02-26T00:00:58.526Z,0
2017-02-26T00:02:08.789Z,0
2017-02-26T00:03:18.673Z,0
2017-02-26T00:04:28.840Z,0
2017-02-26T00:05:38.774Z,0
2017-02-26T00:06:49.081Z,0
2017-02-26T00:07:59.477Z,0
2017-02-26T00:09:09.358Z,0
2017-02-26T00:10:19.079Z,0
2017-02-26T00:11:29.391Z,0
2017-02-26T00:12:39.382Z,0
2017-02-26T00:13:49.708Z,0
2017-02-26T00:15:00.013Z,0
2017-02-26T00:16:10.558Z,0
2017-02-26T00:17:20.863Z,0
2017-02-26T00:18:30.855Z,0
2017-02-26T00:19:41.187Z,0
2017-02-26T00:20:51.477Z,0
2017-02-26T00:22:02.046Z,0
2017-02-26T00:23:12.314Z,0
2017-02-26T00:24:22.628Z,0
2017-02-26T00:25:32.530Z,0
2017-02-26T00:26:42.414Z,0
2017-02-26T00:27:52.962Z,0
2017-02-26T00:29:03.308Z,0
2017-02-26T00:30:13.611Z,0
2017-02-26T00:31:23.896Z,0
2017-02-26T00:32:34.209Z,0
2017-02-26T00:33:43.995Z,0
2017-02-26T00:34:53.513Z,0
2017-02-26T00:36:03.819Z,0
2017-02-26T00:37:14.155Z,0
2017-02-26T00:38:23.332Z,0
2017-02-26T00:39:33.915Z,0
2017-02-26T00:40:43.443Z,0
2017-02-26T00:41:53.336Z,0
2017-02-26T00:43:03.634Z,0
2017-02-26T00:44:13.923Z,0
2017-02-26T00:45:24.577Z,0
2017-02-26T00:46:34.855Z,0
2017-02-26T00:47:44.779Z,0
2017-02-26T00:48:55.225Z,0
2017-02-26T00:50:05.616Z,0
2017-02-26T00:51:16.201Z,0
2017-02-26T00:52:26.507Z,0
2017-02-26T00:53:36.501Z,0
2017-02-26T00:54:46.823Z,0
2017-02-26T00:55:56.728Z,0
2017-02-26T00:57:06.865Z,0
2017-02-26T00:58:16.762Z,0
2017-02-26T00:59:27.075Z,0
2017-02-26T01:00:37.364Z,0
2017-02-26T01:01:47.307Z,0
2017-02-26T01:02:57.571Z,0
2017-02-26T01:04:07.888Z,0
2017-02-26T01:05:17.362Z,0
2017-02-26T01:06:27.635Z,0
2017-02-26T01:07:37.510Z,0
2017-02-26T01:08:48.135Z,0
2017-02-26T01:09:58.462Z,0
2017-02-26T01:11:08.756Z,0
2017-02-26T01:12:19.009Z,0
2017-02-26T01:13:29.338Z,0
2017-02-26T01:14:39.889Z,0
2017-02-26T01:15:50.199Z,0
2017-02-26T01:17:00.478Z,0
2017-02-26T01:18:10.778Z,0
2017-02-26T01:19:21.215Z,0
2017-02-26T01:20:31.356Z,0
2017-02-26T01:21:41.706Z,0
2017-02-26T01:22:51.994Z,0
2017-02-26T01:24:02.363Z,0
2017-02-26T01:25:12.661Z,0
2017-02-26T01:26:22.764Z,0
2017-02-26T01:27:33.063Z,0
2017-02-26T01:28:43.341Z,0
2017-02-26T01:29:53.212Z,0
2017-02-26T01:31:03.532Z,0
2017-02-26T01:32:13.751Z,0
2017-02-26T01:33:23.679Z,0
2017-02-26T01:34:33.599Z,0
2017-02-26T01:35:43.862Z,0
2017-02-26T01:36:54.143Z,0
2017-02-26T01:38:04.282Z,0
2017-02-26T01:39:14.755Z,0
2017-02-26T01:40:25.026Z,0
2017-02-26T01:41:34.502Z,0
2017-02-26T01:42:44.778Z,0
2017-02-26T01:43:54.489Z,0
2017-02-26T01:45:04.756Z,0
2017-02-26T01:46:14.736Z,0
2017-02-26T01:47:24.220Z,0
2017-02-26T01:48:34.496Z,0
2017-02-26T01:49:44.347Z,0
2017-02-26T01:50:53.884Z,0
2017-02-26T01:52:02.995Z,0
2017-02-26T01:53:12.925Z,0
2017-02-26T01:54:23.278Z,0
2017-02-26T01:55:33.855Z,0
2017-02-26T01:56:43.776Z,0
2017-02-26T01:57:54.303Z,0
2017-02-26T01:59:04.617Z,0
2017-02-26T02:00:14.912Z,0
2017-02-26T02:01:25.452Z,0
2017-02-26T02:02:35.822Z,0
2017-02-26T02:03:46.101Z,0
2017-02-26T02:04:56.467Z,0
2017-02-26T02:06:06.820Z,0
2017-02-26T02:07:16.663Z,0
2017-02-26T02:08:26.924Z,0
2017-02-26T02:09:36.829Z,0
2017-02-26T02:10:47.253Z,0
2017-02-26T02:11:56.761Z,0
2017-02-26T02:13:07.308Z,0
2017-02-26T02:14:16.829Z,0
2017-02-26T02:15:27.151Z,0
2017-02-26T02:16:36.643Z,0
2017-02-26T02:17:46.566Z,0
2017-02-26T02:18:56.666Z,0
2017-02-26T02:20:06.571Z,0
2017-02-26T02:21:16.914Z,0
2017-02-26T02:22:26.436Z,0
2017-02-26T02:23:36.337Z,0
2017-02-26T02:24:46.882Z,0
2017-02-26T02:25:56.792Z,0
2017-02-26T02:27:07.057Z,0
2017-02-26T02:28:17.321Z,0
2017-02-26T02:29:27.196Z,0
2017-02-26T02:30:37.808Z,0
2017-02-26T02:31:47.676Z,0
2017-02-26T02:32:57.589Z,0
2017-02-26T02:34:07.507Z,0
2017-02-26T02:35:17.423Z,0
2017-02-26T02:36:27.937Z,0
2017-02-26T02:37:37.865Z,0
2017-02-26T02:38:47.742Z,0
2017-02-26T02:39:58.123Z,0
2017-02-26T02:41:07.580Z,0
2017-02-26T02:42:17.692Z,0
2017-02-26T02:43:28.110Z,0
2017-02-26T02:44:38.427Z,0
2017-02-26T02:45:48.429Z,0
2017-02-26T02:46:58.709Z,0
2017-02-26T02:48:08.405Z,0
2017-02-26T02:49:18.286Z,0
2017-02-26T02:50:28.576Z,0
2017-02-26T02:51:39.034Z,0
2017-02-26T02:52:48.928Z,0
2017-02-26T02:53:59.497Z,0
2017-02-26T02:55:09.365Z,0
2017-02-26T02:56:19.667Z,0
2017-02-26T02:57:29.557Z,0
2017-02-26T02:58:39.426Z,0
2017-02-26T02:59:50.004Z,0
2017-02-26T03:01:00.306Z,0
2017-02-26T03:02:10.237Z,0
2017-02-26T03:03:20.494Z,0
2017-02-26T03:04:30.772Z,0
2017-02-26T03:05:41.319Z,0
2017-02-26T03:06:51.603Z,0
2017-02-26T03:08:01.867Z,0
2017-02-26T03:09:12.147Z,0
2017-02-26T03:10:22.033Z,0
2017-02-26T03:11:32.632Z,0
2017-02-26T03:12:42.879Z,0
2017-02-26T03:13:52.892Z,0
2017-02-26T03:15:03.189Z,0
2017-02-26T03:16:13.155Z,0
2017-02-26T03:17:23.724Z,0
2017-02-26T03:18:34.005Z,0
2017-02-26T03:19:44.319Z,0
2017-02-26T03:20:54.234Z,0
2017-02-26T03:22:04.113Z,0
2017-02-26T03:23:14.644Z,0
2017-02-26T03:24:24.591Z,0
2017-02-26T03:25:34.542Z,0
2017-02-26T03:26:44.417Z,0
2017-02-26T03:27:54.718Z,0
2017-02-26T03:29:05.224Z,0
2017-02-26T03:30:15.516Z,0
2017-02-26T03:31:25.376Z,0
2017-02-26T03:32:35.255Z,0
2017-02-26T03:33:45.543Z,0
2017-02-26T03:34:55.655Z,0
2017-02-26T03:36:05.530Z,0
2017-02-26T03:37:15.446Z,0
2017-02-26T03:38:25.734Z,0
2017-02-26T03:39:36.024Z,0
2017-02-26T03:40:46.358Z,0
2017-02-26T03:41:56.667Z,0
2017-02-26T03:43:06.616Z,0
2017-02-26T03:44:16.080Z,0
2017-02-26T03:45:25.949Z,0
2017-02-26T03:46:36.528Z,0
2017-02-26T03:47:46.410Z,0
2017-02-26T03:48:56.269Z,0
2017-02-26T03:50:06.600Z,0
2017-02-26T03:51:16.893Z,0
2017-02-26T03:52:27.049Z,0
2017-02-26T03:53:36.517Z,0
2017-02-26T03:54:46.363Z,0
2017-02-26T03:55:56.650Z,0
2017-02-26T03:57:06.959Z,0
2017-02-26T03:58:17.501Z,0
2017-02-26T03:59:27.368Z,0
2017-02-26T04:00:37.292Z,0
2017-02-26T04:01:47.547Z,0
2017-02-26T04:02:57.793Z,0
2017-02-26T04:04:07.897Z,0
2017-02-26T04:05:18.325Z,0
2017-02-26T04:06:28.666Z,0
2017-02-26T04:07:38.981Z,0
2017-02-26T04:08:48.478Z,0
2017-02-26T04:09:59.015Z,0
2017-02-26T04:11:09.317Z,0
2017-02-26T04:12:19.184Z,0
2017-02-26T04:13:29.448Z,0
2017-02-26T04:14:39.700Z,0
2017-02-26T04:15:49.862Z,0
2017-02-26T04:17:00.120Z,0
2017-02-26T04:18:10.397Z,0
2017-02-26T04:19:20.268Z,0
2017-02-26T04:20:30.135Z,0
2017-02-26T04:21:40.317Z,0
2017-02-26T04:22:50.187Z,0
2017-02-26T04:24:00.466Z,0
2017-02-26T04:25:10.756Z,0
2017-02-26T04:26:21.200Z,0
2017-02-26T04:27:31.316Z,0
2017-02-26T04:28:41.189Z,0
2017-02-26T04:29:51.537Z,0
2017-02-26T04:31:01.847Z,0
2017-02-26T04:32:12.104Z,0
2017-02-26T04:33:22.636Z,0
2017-02-26T04:34:32.527Z,0
2017-02-26T04:35:42.809Z,0
2017-02-26T04:36:53.345Z,0
2017-02-26T04:38:03.220Z,0
2017-02-26T04:39:13.342Z,0
2017-02-26T04:40:23.219Z,0
2017-02-26T04:41:33.094Z,0
2017-02-26T04:42:43.039Z,0
2017-02-26T04:43:52.894Z,0
2017-02-26T04:45:03.479Z,0
2017-02-26T04:46:13.368Z,0
2017-02-26T04:47:23.315Z,0
2017-02-26T04:48:33.710Z,0
2017-02-26T04:49:43.639Z,0
2017-02-26T04:50:54.186Z,0
2017-02-26T04:52:04.099Z,0
2017-02-26T04:53:13.553Z,0
2017-02-26T04:54:23.838Z,0
2017-02-26T04:55:34.118Z,0
2017-02-26T04:56:44.226Z,0
2017-02-26T04:57:54.498Z,0
2017-02-26T04:59:04.848Z,0
2017-02-26T05:00:15.157Z,0
2017-02-26T05:01:25.448Z,0
2017-02-26T05:02:36.088Z,0
2017-02-26T05:03:46.415Z,0
2017-02-26T05:04:56.702Z,0
2017-02-26T05:06:06.593Z,0
2017-02-26T05:07:16.955Z,0
2017-02-26T05:08:27.166Z,0
2017-02-26T05:09:37.464Z,0
2017-02-26T05:10:47.744Z,0
2017-02-26T05:11:58.020Z,0
2017-02-26T05:13:07.881Z,0
2017-02-26T05:14:18.570Z,0
2017-02-26T05:15:28.471Z,0
2017-02-26T05:16:38.754Z,0
2017-02-26T05:17:49.099Z,0
2017-02-26T05:18:58.562Z,0
2017-02-26T05:20:09.115Z,0
2017-02-26T05:21:18.579Z,0
2017-02-26T05:22:28.452Z,0
2017-02-26T05:23:38.392Z,0
2017-02-26T05:24:48.238Z,0
2017-02-26T05:25:58.751Z,0
2017-02-26T05:27:09.069Z,0
2017-02-26T05:28:18.941Z,0
2017-02-26T05:29:29.230Z,0
2017-02-26T05:30:39.245Z,0
2017-02-26T05:31:49.375Z,0
2017-02-26T05:32:59.991Z,0
2017-02-26T05:34:10.305Z,0
2017-02-26T05:35:20.695Z,0
2017-02-26T05:36:31.053Z,0
2017-02-26T05:37:41.186Z,0
2017-02-26T05:38:51.115Z,0
2017-02-26T05:40:01.079Z,0
2017-02-26T05:41:11.140Z,0
2017-02-26T05:42:21.417Z,0
2017-02-26T05:43:31.542Z,0
2017-02-26T05:44:41.841Z,0
2017-02-26T05:45:52.142Z,0
2017-02-26T05:47:02.019Z,0
2017-02-26T05:48:11.882Z,0
2017-02-26T05:49:22.039Z,0
2017-02-26T05:50:32.315Z,0
2017-02-26T05:51:42.603Z,0
2017-02-26T05:52:52.892Z,0
2017-02-26T05:54:03.075Z,0
2017-02-26T05:55:13.201Z,0
2017-02-26T05:56:23.497Z,0
2017-02-26T05:58:05.142Z,0
2017-02-26T05:59:15.408Z,0
2017-02-26T06:00:25.919Z,0
2017-02-26T06:01:35.970Z,0
2017-02-26T06:02:46.261Z,0
2017-02-26T06:03:56.520Z,0
2017-02-26T06:05:06.901Z,5
2017-02-26T06:06:17.128Z,5
2017-02-26T06:07:27.415Z,5
2017-02-26T06:08:37.752Z,5
2017-02-26T06:09:47.662Z,5
2017-02-26T06:10:57.547Z,5
2017-02-26T06:12:07.739Z,5
2017-02-26T06:13:18.045Z,5
2017-02-26T06:14:27.916Z,5
2017-02-26T06:15:38.287Z,5
2017-02-26T06:16:48.821Z,5
2017-02-26T06:17:59.387Z,5
2017-02-26T06:19:09.299Z,10
2017-02-26T06:20:19.211Z,10
2017-02-26T06:21:29.494Z,10
2017-02-26T06:22:39.804Z,10
2017-02-26T06:23:50.387Z,15
2017-02-26T06:25:00.658Z,15
2017-02-26T06:26:10.970Z,15
2017-02-26T06:27:20.484Z,15
2017-02-26T06:28:30.341Z,15
2017-02-26T06:29:40.044Z,20
2017-02-26T06:30:50.001Z,20
2017-02-26T06:31:59.454Z,20
2017-02-26T06:33:09.332Z,20
2017-02-26T06:34:19.199Z,20
2017-02-26T06:35:29.831Z,20
2017-02-26T06:36:40.178Z,25
2017-02-26T06:37:50.474Z,25
2017-02-26T06:39:00.758Z,25
2017-02-26T06:40:11.070Z,25
2017-02-26T06:41:21.249Z,25
2017-02-26T06:42:31.548Z,25
2017-02-26T06:43:41.434Z,25
2017-02-26T06:44:51.769Z,25
2017-02-26T06:46:01.784Z,25
2017-02-26T06:47:12.354Z,30
2017-02-26T06:48:22.350Z,30
2017-02-26T06:49:32.268Z,30
2017-02-26T06:50:42.167Z,25
2017-02-26T06:51:52.476Z,25
2017-02-26T06:53:02.736Z,25
2017-02-26T06:54:13.063Z,25
2017-02-26T06:55:22.976Z,30
2017-02-26T06:56:32.821Z,30
2017-02-26T06:57:42.305Z,35
2017-02-26T06:58:52.855Z,35
2017-02-26T07:00:03.142Z,40
2017-02-26T07:01:13.454Z,40
2017-02-26T07:02:23.341Z,40
2017-02-26T07:03:33.413Z,40
2017-02-26T07:04:43.957Z,40
2017-02-26T07:05:54.306Z,40
2017-02-26T07:07:04.449Z,40
2017-02-26T07:08:14.309Z,35
2017-02-26T07:09:24.181Z,30
2017-02-26T07:10:34.738Z,35
2017-02-26T07:11:45.023Z,35
2017-02-26T07:12:55.316Z,35
2017-02-26T07:14:05.598Z,40
2017-02-26T07:15:15.866Z,45
2017-02-26T07:16:26.405Z,65
2017-02-26T07:17:35.858Z,80
2017-02-26T07:18:45.753Z,95
2017-02-26T07:19:55.755Z,95
2017-02-26T07:21:05.904Z,90
2017-02-26T07:22:16.511Z,95
2017-02-26T07:23:26.366Z,100
2017-02-26T07:24:36.654Z,105
2017-02-26T07:25:46.504Z,115
2017-02-26T07:26:56.558Z,140
2017-02-26T07:28:06.260Z,155
2017-02-26T07:29:16.111Z,160
2017-02-26T07:30:26.465Z,145
2017-02-26T07:31:36.764Z,135
2017-02-26T07:32:47.063Z,130
2017-02-26T07:33:57.672Z,140
2017-02-26T07:35:08.142Z,140
2017-02-26T07:36:18.421Z,135
2017-02-26T07:37:28.686Z,130
2017-02-26T07:39:11.001Z,130
2017-02-26T07:40:21.425Z,125
2017-02-26T07:41:31.706Z,120
2017-02-26T07:42:42.015Z,120
2017-02-26T07:43:52.571Z,125
2017-02-26T07:45:03.175Z,125
2017-02-26T07:46:13.468Z,130
2017-02-26T07:47:23.379Z,120
2017-02-26T07:48:33.657Z,110
2017-02-26T07:49:43.921Z,115
2017-02-26T07:50:54.062Z,130
2017-02-26T07:52:04.410Z,135
2017-02-26T07:53:14.674Z,130
2017-02-26T07:54:24.558Z,130
2017-02-26T07:55:34.482Z,130
2017-02-26T07:56:45.246Z,140
2017-02-26T07:57:55.525Z,155
2017-02-26T07:59:04.781Z,170
2017-02-26T08:00:15.070Z,170
2017-02-26T08:01:25.369Z,165
2017-02-26T08:02:35.910Z,150
2017-02-26T08:03:45.377Z,140
2017-02-26T08:04:55.742Z,140
2017-02-26T08:06:06.020Z,145
2017-02-26T08:07:16.370Z,145
2017-02-26T08:08:26.899Z,145
2017-02-26T08:09:37.200Z,140
2017-02-26T08:10:46.681Z,130
2017-02-26T08:11:56.957Z,125
2017-02-26T08:13:06.865Z,120
2017-02-26T08:14:17.004Z,120
2017-02-26T08:15:26.970Z,125
2017-02-26T08:16:37.282Z,140
2017-02-26T08:17:47.549Z,165
2017-02-26T08:18:57.442Z,195
2017-02-26T08:20:08.220Z,230
2017-02-26T08:21:18.540Z,245
2017-02-26T08:22:28.415Z,260
2017-02-26T08:23:38.333Z,260
2017-02-26T08:24:48.241Z,265
2017-02-26T08:25:58.781Z,270
2017-02-26T08:27:09.200Z,270
2017-02-26T08:28:19.166Z,275
2017-02-26T08:29:29.431Z,275
2017-02-26T08:30:39.352Z,290
2017-02-26T08:31:49.902Z,300
2017-02-26T08:33:00.201Z,305
2017-02-26T08:34:10.098Z,310
2017-02-26T08:35:20.420Z,305
2017-02-26T08:36:30.705Z,330
2017-02-26T08:37:41.237Z,345
2017-02-26T08:38:50.766Z,345
2017-02-26T08:40:01.059Z,345
2017-02-26T08:41:10.957Z,350
2017-02-26T08:42:21.265Z,355
2017-02-26T08:43:31.832Z,360
2017-02-26T08:44:42.121Z,355
2017-02-26T08:45:52.035Z,350
2017-02-26T08:47:02.328Z,350
2017-02-26T08:48:12.641Z,350
2017-02-26T08:49:23.225Z,360
2017-02-26T08:50:33.093Z,395
2017-02-26T08:51:43.382Z,445
2017-02-26T08:52:53.701Z,485
2017-02-26T08:54:03.971Z,495
2017-02-26T08:55:14.499Z,495
2017-02-26T08:56:24.839Z,495
2017-02-26T08:57:35.165Z,515
2017-02-26T08:58:45.468Z,580
2017-02-26T08:59:55.881Z,650
2017-02-26T09:01:06.067Z,720
2017-02-26T09:02:15.531Z,855
2017-02-26T09:03:25.894Z,870
2017-02-26T09:04:36.178Z,1050
2017-02-26T09:05:46.491Z,1075
2017-02-26T09:06:57.082Z,1005
2017-02-26T09:08:07.580Z,935
2017-02-26T09:09:17.884Z,885
2017-02-26T09:10:27.847Z,825
2017-02-26T09:11:38.165Z,745
2017-02-26T09:12:48.311Z,700
2017-02-26T09:13:58.612Z,655
2017-02-26T09:15:08.892Z,615
2017-02-26T09:16:19.273Z,630
2017-02-26T09:17:29.623Z,550
2017-02-26T09:18:40.169Z,535
2017-02-26T09:19:50.071Z,535
2017-02-26T09:21:00.364Z,545
2017-02-26T09:22:10.424Z,575
2017-02-26T09:23:20.765Z,610
2017-02-26T09:24:30.566Z,630
2017-02-26T09:25:40.569Z,615
2017-02-26T09:26:50.897Z,610
2017-02-26T09:28:01.195Z,605
2017-02-26T09:29:11.125Z,595
2017-02-26T09:30:21.717Z,585
2017-02-26T09:31:32.026Z,585
2017-02-26T09:32:41.969Z,580
2017-02-26T09:33:52.417Z,580
2017-02-26T09:35:02.754Z,555
2017-02-26T09:36:13.321Z,525
2017-02-26T09:37:23.677Z,510
2017-02-26T09:38:34.103Z,500
2017-02-26T09:39:44.385Z,500
2017-02-26T09:40:54.686Z,470
2017-02-26T09:42:04.812Z,455
2017-02-26T09:43:15.149Z,430
2017-02-26T09:44:25.033Z,425
2017-02-26T09:45:35.333Z,435
2017-02-26T09:46:45.662Z,445
2017-02-26T09:47:55.794Z,480
2017-02-26T09:49:06.087Z,510
2017-02-26T09:50:16.400Z,540
2017-02-26T09:51:26.339Z,570
2017-02-26T09:52:36.632Z,745
2017-02-26T09:53:46.757Z,810
2017-02-26T09:54:56.255Z,745
2017-02-26T09:56:06.591Z,850
2017-02-26T09:57:16.908Z,635
2017-02-26T09:58:27.194Z,535
2017-02-26T09:59:37.703Z,415
2017-02-26T10:00:47.686Z,380
2017-02-26T10:01:57.779Z,365
2017-02-26T10:03:08.075Z,355
2017-02-26T10:04:18.625Z,355
2017-02-26T10:05:28.455Z,365
2017-02-26T10:06:38.385Z,405
2017-02-26T10:07:48.334Z,450
2017-02-26T10:08:58.644Z,455
2017-02-26T10:10:08.549Z,470
2017-02-26T10:11:19.131Z,500
2017-02-26T10:12:29.430Z,475
2017-02-26T10:13:39.419Z,415
2017-02-26T10:14:49.737Z,405
2017-02-26T10:16:00.052Z,425
2017-02-26T10:17:10.606Z,495
2017-02-26T10:18:20.943Z,605
2017-02-26T10:19:30.826Z,775
2017-02-26T10:20:40.691Z,735
2017-02-26T10:21:50.215Z,600
2017-02-26T10:23:00.874Z,430
2017-02-26T10:24:10.484Z,350
2017-02-26T10:25:20.442Z,335
2017-02-26T10:26:30.729Z,370
2017-02-26T10:27:41.062Z,455
2017-02-26T10:28:51.629Z,615
2017-02-26T10:30:01.936Z,780
2017-02-26T10:31:11.898Z,800
2017-02-26T10:32:21.808Z,765
2017-02-26T10:33:31.691Z,690
2017-02-26T10:34:42.496Z,535
2017-02-26T10:35:52.477Z,565
2017-02-26T10:37:02.934Z,580
2017-02-26T10:38:13.290Z,595
2017-02-26T10:39:23.646Z,610
2017-02-26T10:40:33.816Z,595
2017-02-26T10:41:44.285Z,625
2017-02-26T10:42:54.301Z,715
2017-02-26T10:44:04.643Z,800
2017-02-26T10:45:14.528Z,700
2017-02-26T10:46:25.143Z,655
2017-02-26T10:47:35.835Z,705
2017-02-26T10:48:46.374Z,690
2017-02-26T10:49:56.715Z,700
2017-02-26T10:51:07.147Z,800
2017-02-26T10:52:17.678Z,780
2017-02-26T10:53:27.624Z,695
2017-02-26T10:54:38.072Z,645
2017-02-26T10:55:48.429Z,635
2017-02-26T10:56:57.537Z,585
2017-02-26T10:58:07.740Z,505
2017-02-26T10:59:18.115Z,480
2017-02-26T11:00:28.463Z,490
2017-02-26T11:01:38.348Z,545
2017-02-26T11:02:48.731Z,535
2017-02-26T11:03:59.311Z,530
2017-02-26T11:05:08.820Z,495
2017-02-26T11:06:19.132Z,525
2017-02-26T11:07:29.039Z,490
2017-02-26T11:08:39.382Z,445
2017-02-26T11:09:49.570Z,475
2017-02-26T11:11:06.431Z,525
2017-02-26T11:12:20.397Z,565
2017-02-26T11:13:33.828Z,630
2017-02-26T11:14:46.716Z,890
2017-02-26T11:15:59.129Z,1190
2017-02-26T11:17:12.787Z,1240
2017-02-26T11:18:24.979Z,945
2017-02-26T11:19:37.886Z,735
2017-02-26T11:20:51.700Z,590
2017-02-26T11:22:01.610Z,535
2017-02-26T11:23:11.987Z,530
2017-02-26T11:24:22.320Z,565
2017-02-26T11:25:32.350Z,585
2017-02-26T11:26:43.003Z,580
2017-02-26T11:27:53.361Z,535
2017-02-26T11:29:03.731Z,515
2017-02-26T11:30:14.136Z,470
2017-02-26T11:31:24.101Z,445
2017-02-26T11:32:34.683Z,420
2017-02-26T11:33:44.622Z,405
2017-02-26T11:34:53.708Z,390
2017-02-26T11:36:04.203Z,410
2017-02-26T11:37:14.593Z,450
2017-02-26T11:38:25.333Z,450
2017-02-26T11:39:35.392Z,495
2017-02-26T11:40:45.867Z,570
2017-02-26T11:41:56.145Z,690
2017-02-26T11:43:06.201Z,780
2017-02-26T11:44:17.069Z,760
2017-02-26T11:45:27.041Z,720
2017-02-26T11:46:37.490Z,655
2017-02-26T11:47:47.394Z,655
2017-02-26T11:48:57.456Z,715
2017-02-26T11:50:08.026Z,720
2017-02-26T11:51:18.457Z,795
2017-02-26T11:52:28.755Z,850
2017-02-26T11:53:39.052Z,915
2017-02-26T11:54:48.986Z,1145
2017-02-26T11:55:59.582Z,1360
2017-02-26T11:57:09.571Z,1320
2017-02-26T11:58:19.928Z,1395
2017-02-26T11:59:29.850Z,1095
2017-02-26T12:00:40.229Z,950
2017-02-26T12:01:50.394Z,960
2017-02-26T12:03:00.901Z,1010
2017-02-26T12:04:10.827Z,1160
2017-02-26T12:05:21.256Z,1620
2017-02-26T12:06:32.168Z,1445
2017-02-26T12:07:42.689Z,1320
2017-02-26T12:08:53.014Z,1780
2017-02-26T12:10:03.303Z,1725
2017-02-26T12:11:13.201Z,3305
2017-02-26T12:12:23.077Z,2455
2017-02-26T12:13:32.807Z,1340
2017-02-26T12:14:42.688Z,1145
2017-02-26T12:15:52.599Z,1960
2017-02-26T12:17:02.909Z,1585
2017-02-26T12:18:13.347Z,1565
2017-02-26T12:19:23.970Z,1545
2017-02-26T12:20:34.380Z,2030
2017-02-26T12:22:16.449Z,2440
2017-02-26T12:23:26.755Z,2085
2017-02-26T12:24:36.898Z,1540
2017-02-26T12:25:47.276Z,1045
2017-02-26T12:26:57.606Z,815
2017-02-26T12:28:07.609Z,905
2017-02-26T12:29:17.928Z,760
2017-02-26T12:30:28.141Z,635
2017-02-26T12:31:38.059Z,525
2017-02-26T12:32:48.428Z,495
2017-02-26T12:33:58.781Z,470
2017-02-26T12:35:09.169Z,420
2017-02-26T12:36:19.357Z,400
2017-02-26T12:37:29.694Z,380
2017-02-26T12:38:40.040Z,375
2017-02-26T12:39:49.968Z,360
2017-02-26T12:41:00.303Z,340
2017-02-26T12:42:10.493Z,330
2017-02-26T12:43:20.534Z,315
2017-02-26T12:44:30.458Z,300
2017-02-26T12:45:40.388Z,305
2017-02-26T12:46:49.878Z,320
2017-02-26T12:48:00.100Z,325
2017-02-26T12:49:09.630Z,355
2017-02-26T12:50:19.906Z,405
2017-02-26T12:51:30.219Z,385
2017-02-26T12:52:40.675Z,430
2017-02-26T12:53:51.544Z,475
2017-02-26T12:55:02.026Z,485
2017-02-26T12:56:12.373Z,410
2017-02-26T12:57:22.338Z,400
2017-02-26T12:58:32.631Z,430
2017-02-26T12:59:43.297Z,465
2017-02-26T13:00:53.705Z,480
2017-02-26T13:02:04.109Z,560
2017-02-26T13:03:14.478Z,625
2017-02-26T13:04:24.778Z,690
2017-02-26T13:05:35.319Z,730
2017-02-26T13:06:45.616Z,690
2017-02-26T13:07:55.996Z,700
2017-02-26T13:09:05.943Z,650
2017-02-26T13:10:16.527Z,655
2017-02-26T13:11:27.092Z,575
2017-02-26T13:12:37.450Z,765
2017-02-26T13:13:47.799Z,850
2017-02-26T13:14:58.242Z,820
2017-02-26T13:16:08.207Z,1075
2017-02-26T13:17:18.811Z,1000
2017-02-26T13:18:29.209Z,805
2017-02-26T13:19:39.591Z,750
2017-02-26T13:20:49.910Z,715
2017-02-26T13:22:00.295Z,720
2017-02-26T13:23:11.073Z,715
2017-02-26T13:24:21.383Z,745
2017-02-26T13:25:31.731Z,785
2017-02-26T13:26:42.168Z,920
2017-02-26T13:27:52.558Z,935
2017-02-26T13:29:03.373Z,845
2017-02-26T13:30:13.754Z,930
2017-02-26T13:31:24.081Z,1040
2017-02-26T13:32:34.396Z,845
2017-02-26T13:33:44.412Z,770
2017-02-26T13:34:54.938Z,870
2017-02-26T13:36:05.318Z,1015
2017-02-26T13:37:15.650Z,800
2017-02-26T13:38:25.956Z,785
2017-02-26T13:39:35.866Z,960
2017-02-26T13:40:46.444Z,925
2017-02-26T13:41:56.971Z,1175
2017-02-26T13:43:06.908Z,810
2017-02-26T13:44:16.868Z,830
2017-02-26T13:45:27.390Z,920
2017-02-26T13:46:37.608Z,670
2017-02-26T13:47:47.972Z,625
2017-02-26T13:48:57.866Z,605
2017-02-26T13:50:08.218Z,470
2017-02-26T13:51:18.580Z,455
2017-02-26T13:52:29.221Z,495
2017-02-26T13:53:39.652Z,540
2017-02-26T13:54:49.969Z,485
2017-02-26T13:56:00.271Z,470
2017-02-26T13:57:10.988Z,445
2017-02-26T13:58:21.574Z,415
2017-02-26T13:59:31.892Z,400
2017-02-26T14:00:42.236Z,390
2017-02-26T14:01:52.568Z,385
2017-02-26T14:03:02.990Z,430
2017-02-26T14:04:13.571Z,445
2017-02-26T14:05:23.973Z,455
2017-02-26T14:06:34.328Z,465
2017-02-26T14:07:44.690Z,445
2017-02-26T14:08:55.008Z,420
2017-02-26T14:10:05.181Z,395
2017-02-26T14:11:15.526Z,390
2017-02-26T14:12:25.882Z,380
2017-02-26T14:13:35.788Z,360
2017-02-26T14:14:46.079Z,350
2017-02-26T14:15:56.657Z,340
2017-02-26T14:17:06.672Z,355
2017-02-26T14:18:16.548Z,350
2017-02-26T14:19:26.457Z,395
2017-02-26T14:20:36.461Z,425
2017-02-26T14:21:47.075Z,540
2017-02-26T14:22:56.986Z,485
2017-02-26T14:24:07.337Z,630
2017-02-26T14:25:17.245Z,765
2017-02-26T14:26:27.602Z,475
2017-02-26T14:27:38.178Z,585
2017-02-26T14:28:47.720Z,1850
2017-02-26T14:29:58.041Z,2030
2017-02-26T14:31:08.375Z,1875
2017-02-26T14:32:18.768Z,1100
2017-02-26T14:33:29.316Z,1940
2017-02-26T14:34:39.260Z,1140
2017-02-26T14:35:49.242Z,905
2017-02-26T14:36:59.187Z,1515
2017-02-26T14:38:09.533Z,1495
2017-02-26T14:39:20.188Z,1450
2017-02-26T14:40:30.602Z,1755
2017-02-26T14:41:40.931Z,1535
2017-02-26T14:42:51.365Z,715
2017-02-26T14:44:01.676Z,445
2017-02-26T14:45:12.255Z,425
2017-02-26T14:46:22.564Z,670
2017-02-26T14:47:32.168Z,765
2017-02-26T14:48:42.565Z,1445
2017-02-26T14:49:52.985Z,1295
2017-02-26T14:51:03.756Z,780
2017-02-26T14:52:14.106Z,785
2017-02-26T14:53:24.028Z,815
2017-02-26T14:54:34.017Z,690
2017-02-26T14:55:43.962Z,640
2017-02-26T14:56:54.524Z,605
2017-02-26T14:58:04.451Z,580
2017-02-26T14:59:14.568Z,580
2017-02-26T15:00:25.196Z,540
2017-02-26T15:01:35.498Z,545
2017-02-26T15:02:46.150Z,585
2017-02-26T15:03:56.093Z,545
2017-02-26T15:05:06.569Z,500
2017-02-26T15:06:16.951Z,495
2017-02-26T15:07:27.308Z,490
2017-02-26T15:08:38.015Z,470
2017-02-26T15:09:48.436Z,475
2017-02-26T15:10:58.508Z,520
2017-02-26T15:12:08.835Z,490
2017-02-26T15:13:18.778Z,430
2017-02-26T15:14:29.382Z,420
2017-02-26T15:15:39.748Z,435
2017-02-26T15:16:49.324Z,445
2017-02-26T15:17:59.762Z,410
2017-02-26T15:19:09.695Z,380
2017-02-26T15:20:20.293Z,475
2017-02-26T15:21:30.644Z,415
2017-02-26T15:22:40.945Z,360
2017-02-26T15:23:51.292Z,310
2017-02-26T15:25:01.665Z,305
2017-02-26T15:26:12.232Z,310
2017-02-26T15:27:22.528Z,300
2017-02-26T15:28:32.068Z,300
2017-02-26T15:29:42.399Z,285
2017-02-26T15:30:52.739Z,265
2017-02-26T15:32:03.317Z,255
2017-02-26T15:33:13.614Z,245
2017-02-26T15:34:23.568Z,240
2017-02-26T15:35:33.924Z,230
2017-02-26T15:36:43.997Z,240
2017-02-26T15:37:54.656Z,240
2017-02-26T15:39:04.632Z,240
2017-02-26T15:40:15.009Z,235
2017-02-26T15:41:25.508Z,220
2017-02-26T15:42:34.995Z,210
2017-02-26T15:43:45.735Z,205
2017-02-26T15:44:55.659Z,210
2017-02-26T15:46:05.992Z,170
2017-02-26T15:47:15.894Z,160
2017-02-26T15:48:26.291Z,145
2017-02-26T15:49:36.088Z,120
2017-02-26T15:50:46.451Z,100
2017-02-26T15:51:56.976Z,95
2017-02-26T15:53:07.434Z,120
2017-02-26T15:54:17.829Z,145
2017-02-26T15:55:27.992Z,135
2017-02-26T15:56:38.300Z,115
2017-02-26T15:57:48.249Z,110
2017-02-26T15:58:58.559Z,100
2017-02-26T16:00:08.920Z,100
2017-02-26T16:01:18.764Z,105
2017-02-26T16:02:28.682Z,100
2017-02-26T16:03:38.656Z,100
2017-02-26T16:04:49.022Z,110
2017-02-26T16:05:59.612Z,110
2017-02-26T16:07:09.820Z,100
2017-02-26T16:08:20.463Z,90
2017-02-26T16:09:30.374Z,90
2017-02-26T16:10:40.906Z,90
2017-02-26T16:11:51.232Z,80
2017-02-26T16:13:01.839Z,70
2017-02-26T16:14:11.753Z,60
2017-02-26T16:15:22.085Z,60
2017-02-26T16:16:32.415Z,55
2017-02-26T16:17:42.807Z,50
2017-02-26T16:18:52.967Z,45
2017-02-26T16:20:03.291Z,45
2017-02-26T16:21:13.292Z,45
2017-02-26T16:22:23.662Z,50
2017-02-26T16:23:33.669Z,55
2017-02-26T16:24:44.402Z,60
2017-02-26T16:25:54.701Z,60
2017-02-26T16:27:04.659Z,55
2017-02-26T16:28:14.853Z,45
2017-02-26T16:29:25.161Z,40
2017-02-26T16:30:37.790Z,35
2017-02-26T16:31:55.337Z,30
2017-02-26T16:33:08.056Z,30
2017-02-26T16:34:17.973Z,25
2017-02-26T16:35:30.727Z,20
2017-02-26T16:36:41.102Z,20